createdAt,value
2023-03-05T00:02:26.728Z,80.49
2023-03-05T00:04:56.124Z,80.38
2023-03-05T00:07:28.135Z,80.65
2023-03-05T00:09:58.027Z,81.07
2023-03-05T00:12:27.413Z,81.05
2023-03-05T00:14:56.798Z,80.96
2023-03-05T00:17:26.275Z,80.63
2023-03-05T00:19:57.095Z,79.74
2023-03-05T00:22:29.866Z,79.40
2023-03-05T00:24:59.161Z,79.71
2023-03-05T00:27:28.670Z,79.71
2023-03-05T00:29:58.108Z,79.51
2023-03-05T00:32:27.632Z,79.67
2023-03-05T00:34:57.026Z,79.67
2023-03-05T00:37:29.067Z,79.69
2023-03-05T00:39:58.627Z,79.88
2023-03-05T00:42:28.046Z,79.72
2023-03-05T00:44:57.396Z,79.95
2023-03-05T00:47:28.444Z,79.80
2023-03-05T00:49:57.802Z,80.00
2023-03-05T00:52:29.985Z,79.64
2023-03-05T00:54:59.597Z,80.74
2023-03-05T00:57:28.999Z,80.72
2023-03-05T00:59:58.372Z,80.56
2023-03-05T01:02:27.875Z,80.50
2023-03-05T01:04:57.296Z,80.63
2023-03-05T01:07:29.385Z,80.39
2023-03-05T01:09:58.808Z,80.05
2023-03-05T01:12:28.167Z,80.29
2023-03-05T01:14:57.542Z,80.40
2023-03-05T01:17:29.785Z,80.74
2023-03-05T01:19:59.312Z,80.97
2023-03-05T01:22:31.773Z,80.89
2023-03-05T01:25:01.150Z,81.18
2023-03-05T01:27:30.615Z,81.08
2023-03-05T01:30:00.011Z,81.40
2023-03-05T01:32:29.637Z,80.97
2023-03-05T01:34:59.078Z,80.93
2023-03-05T01:37:31.895Z,80.97
2023-03-05T01:40:01.367Z,80.72
2023-03-05T01:42:31.266Z,80.65
2023-03-05T01:45:06.901Z,80.50
2023-03-05T01:47:36.345Z,80.63
2023-03-05T01:50:07.135Z,80.68
2023-03-05T01:52:43.061Z,80.82
2023-03-05T01:55:16.431Z,80.38
2023-03-05T01:57:48.651Z,80.37
2023-03-05T02:00:20.866Z,79.83
2023-03-05T02:02:52.545Z,80.13
2023-03-05T02:05:27.196Z,79.90
2023-03-05T02:08:02.479Z,79.56
2023-03-05T02:10:34.721Z,79.54
2023-03-05T02:13:07.964Z,80.04
2023-03-05T02:15:38.248Z,80.00
2023-03-05T02:18:09.016Z,80.12
2023-03-05T02:20:47.580Z,80.29
2023-03-05T02:23:22.602Z,79.82
2023-03-05T02:25:52.192Z,79.53
2023-03-05T02:28:27.250Z,79.49
2023-03-05T02:30:57.139Z,80.12
2023-03-05T02:33:26.854Z,80.13
2023-03-05T02:35:56.249Z,80.52
2023-03-05T02:38:28.495Z,80.76
2023-03-05T02:40:57.919Z,80.92
2023-03-05T02:43:27.449Z,80.26
2023-03-05T02:45:57.023Z,80.58
2023-03-05T02:48:26.485Z,80.70
2023-03-05T02:50:56.765Z,80.70
2023-03-05T02:53:29.383Z,80.65
2023-03-05T02:55:59.241Z,81.03
2023-03-05T02:58:29.601Z,81.00
2023-03-05T03:00:59.151Z,80.95
2023-03-05T03:03:28.647Z,81.91
2023-03-05T03:05:58.042Z,81.96
2023-03-05T03:08:30.047Z,82.13
2023-03-05T03:10:59.434Z,83.01
2023-03-05T03:13:28.816Z,82.71
2023-03-05T03:16:04.741Z,82.54
2023-03-05T03:18:34.281Z,82.68
2023-03-05T03:21:04.163Z,82.94
2023-03-05T03:23:37.147Z,82.68
2023-03-05T03:26:07.227Z,82.34
2023-03-05T03:28:36.639Z,82.82
2023-03-05T03:31:06.304Z,82.61
2023-03-05T03:33:35.790Z,82.41
2023-03-05T03:36:06.763Z,82.93
2023-03-05T03:38:38.757Z,83.25
2023-03-05T03:41:09.537Z,83.10
2023-03-05T03:43:39.553Z,84.01
2023-03-05T03:46:09.389Z,84.14
2023-03-05T03:48:38.830Z,84.35
2023-03-05T03:51:10.323Z,84.28
2023-03-05T03:53:42.261Z,84.54
2023-03-05T03:56:11.644Z,84.64
2023-03-05T03:58:40.985Z,84.35
2023-03-05T04:01:10.491Z,84.24
2023-03-05T04:03:39.899Z,84.74
2023-03-05T04:06:09.828Z,84.67
2023-03-05T04:08:42.181Z,84.14
2023-03-05T04:11:12.217Z,84.04
2023-03-05T04:13:41.604Z,84.12
2023-03-05T04:16:11.134Z,83.71
2023-03-05T04:18:40.622Z,83.66
2023-03-05T04:21:10.236Z,84.00
2023-03-05T04:23:42.881Z,83.71
2023-03-05T04:26:12.296Z,83.28
2023-03-05T04:28:41.852Z,82.97
2023-03-05T04:31:11.250Z,83.21
2023-03-05T04:33:40.633Z,83.05
2023-03-05T04:36:10.823Z,82.89
2023-03-05T04:38:42.786Z,82.75
2023-03-05T04:41:12.215Z,82.46
2023-03-05T04:43:41.614Z,82.72
2023-03-05T04:46:11.229Z,82.69
2023-03-05T04:48:40.823Z,83.10
2023-03-05T04:51:10.241Z,82.81
2023-03-05T04:53:39.681Z,83.15
2023-03-05T04:56:11.872Z,82.76
2023-03-05T04:58:41.286Z,82.98
2023-03-05T05:01:10.825Z,82.88
2023-03-05T05:03:40.426Z,82.75
2023-03-05T05:06:10.059Z,82.93
2023-03-05T05:08:39.740Z,82.94
2023-03-05T05:11:16.619Z,82.96
2023-03-05T05:13:45.987Z,82.94
2023-03-05T05:16:16.244Z,82.95
2023-03-05T05:18:45.669Z,83.11
2023-03-05T05:21:18.588Z,82.88
2023-03-05T05:23:48.034Z,82.88
2023-03-05T05:26:20.092Z,83.08
2023-03-05T05:28:49.555Z,83.18
2023-03-05T05:31:20.340Z,83.18
2023-03-05T05:33:50.124Z,83.11
2023-03-05T05:36:22.414Z,83.10
2023-03-05T05:38:51.916Z,82.91
2023-03-05T05:41:24.172Z,82.60
2023-03-05T05:43:53.809Z,82.37
2023-03-05T05:46:24.789Z,82.76
2023-03-05T05:48:54.368Z,82.45
2023-03-05T05:51:25.916Z,82.12
2023-03-05T05:53:55.639Z,82.23
2023-03-05T05:56:27.856Z,82.20
2023-03-05T05:58:57.544Z,82.10
2023-03-05T06:01:29.186Z,82.50
2023-03-05T06:03:58.830Z,82.62
2023-03-05T06:06:29.533Z,82.62
2023-03-05T06:08:59.547Z,83.10
2023-03-05T06:11:32.274Z,82.62
2023-03-05T06:14:02.660Z,82.44
2023-03-05T06:16:32.727Z,82.26
2023-03-05T06:19:04.579Z,82.02
2023-03-05T06:21:34.824Z,82.14
2023-03-05T06:24:04.269Z,81.81
2023-03-05T06:26:36.309Z,81.89
2023-03-05T06:29:06.330Z,81.95
2023-03-05T06:31:37.350Z,81.46
2023-03-05T06:34:07.408Z,81.29
2023-03-05T06:36:36.806Z,81.57
2023-03-05T06:39:06.790Z,81.90
2023-03-05T06:41:38.807Z,81.75
2023-03-05T06:44:08.474Z,81.85
2023-03-05T06:46:40.050Z,81.63
2023-03-05T06:49:09.823Z,82.04
2023-03-05T06:51:41.092Z,82.54
2023-03-05T06:54:12.400Z,82.51
2023-03-05T06:56:46.576Z,81.78
2023-03-05T06:59:17.616Z,81.20
2023-03-05T07:01:47.929Z,81.24
2023-03-05T07:04:18.749Z,81.16
2023-03-05T07:06:48.185Z,80.70
2023-03-05T07:09:18.439Z,80.54
2023-03-05T07:11:50.369Z,80.13
2023-03-05T07:14:19.790Z,79.59
2023-03-05T07:16:50.341Z,79.70
2023-03-05T07:19:20.070Z,79.54
2023-03-05T07:21:49.446Z,78.97
2023-03-05T07:24:18.837Z,79.26
2023-03-05T07:26:50.793Z,78.68
2023-03-05T07:29:20.201Z,79.09
2023-03-05T07:31:49.588Z,78.11
2023-03-05T07:34:18.995Z,77.97
2023-03-05T07:36:48.594Z,77.86
2023-03-05T07:39:19.119Z,78.33
2023-03-05T07:41:51.806Z,78.47
2023-03-05T07:44:29.154Z,78.14
2023-03-05T07:46:58.549Z,78.59
2023-03-05T07:49:27.939Z,78.35
2023-03-05T07:51:57.314Z,77.97
2023-03-05T07:54:26.740Z,77.92
2023-03-05T07:56:59.713Z,78.58
2023-03-05T07:59:29.112Z,78.36
2023-03-05T08:01:58.512Z,78.71
2023-03-05T08:04:29.990Z,78.48
2023-03-05T08:06:59.459Z,79.00
2023-03-05T08:09:28.913Z,79.01
2023-03-05T08:12:00.897Z,77.76
2023-03-05T08:14:30.469Z,76.19
2023-03-05T08:16:59.827Z,76.95
2023-03-05T08:19:29.748Z,77.57
2023-03-05T08:21:59.107Z,77.46
2023-03-05T08:24:29.833Z,76.75
2023-03-05T08:27:01.846Z,76.14
2023-03-05T08:29:31.199Z,76.90
2023-03-05T08:32:00.620Z,76.18
2023-03-05T08:34:29.968Z,75.64
2023-03-05T08:36:59.577Z,75.71
2023-03-05T08:39:30.227Z,75.42
2023-03-05T08:42:02.157Z,73.55
2023-03-05T08:44:31.714Z,74.21
2023-03-05T08:47:01.111Z,73.43
2023-03-05T08:49:30.539Z,73.68
2023-03-05T08:51:59.945Z,74.03
2023-03-05T08:54:29.269Z,73.87
2023-03-05T08:56:58.803Z,75.13
2023-03-05T08:59:30.738Z,76.93
2023-03-05T09:02:03.077Z,77.55
2023-03-05T09:04:32.544Z,78.19
2023-03-05T09:07:01.902Z,77.69
2023-03-05T09:09:33.011Z,77.14
2023-03-05T09:12:02.671Z,76.40
2023-03-05T09:14:34.679Z,76.08
2023-03-05T09:17:05.218Z,74.75
2023-03-05T09:19:34.662Z,75.50
2023-03-05T09:22:04.055Z,75.85
2023-03-05T09:24:34.382Z,76.78
2023-03-05T09:27:03.800Z,77.26
2023-03-05T09:29:35.770Z,76.87
2023-03-05T09:32:05.238Z,75.19
2023-03-05T09:34:34.697Z,74.43
2023-03-05T09:37:05.632Z,74.14
2023-03-05T09:39:35.017Z,73.31
2023-03-05T09:42:30.465Z,72.09
2023-03-05T09:45:18.863Z,70.83
2023-03-05T09:47:55.555Z,69.63
2023-03-05T09:50:40.474Z,69.65
2023-03-05T09:53:19.035Z,69.61
2023-03-05T09:55:52.162Z,68.15
2023-03-05T09:58:31.132Z,67.89
2023-03-05T10:01:06.149Z,66.90
2023-03-05T10:03:48.012Z,66.34
2023-03-05T10:06:24.012Z,64.92
2023-03-05T10:08:57.824Z,64.68
2023-03-05T10:11:42.328Z,65.24
2023-03-05T10:14:17.349Z,63.47
2023-03-05T10:17:00.673Z,62.89
2023-03-05T10:19:49.080Z,63.07
2023-03-05T10:22:23.452Z,63.40
2023-03-05T10:25:05.588Z,64.61
2023-03-05T10:27:45.590Z,64.12
2023-03-05T10:30:32.736Z,63.66
2023-03-05T10:33:13.937Z,63.91
2023-03-05T10:36:05.340Z,63.66
2023-03-05T10:38:59.934Z,62.95
2023-03-05T10:41:35.704Z,63.30
2023-03-05T10:44:12.063Z,63.29
2023-03-05T10:46:43.020Z,62.06
2023-03-05T10:49:22.513Z,61.14
2023-03-05T10:51:55.660Z,60.75
2023-03-05T10:54:29.922Z,61.08
2023-03-05T10:57:07.668Z,60.25
2023-03-05T10:59:37.377Z,60.19
2023-03-05T11:02:10.095Z,59.90
2023-03-05T11:04:42.769Z,58.22
2023-03-05T11:07:37.088Z,58.21
2023-03-05T11:10:18.998Z,56.77
2023-03-05T11:12:49.895Z,57.49
2023-03-05T11:15:32.469Z,56.74
2023-03-05T11:18:24.185Z,57.35
2023-03-05T11:21:10.871Z,58.24
2023-03-05T11:23:40.684Z,59.01
2023-03-05T11:26:24.435Z,59.52
2023-03-05T11:29:01.920Z,58.02
2023-03-05T11:31:33.810Z,57.64
2023-03-05T11:34:05.215Z,57.25
2023-03-05T11:36:38.885Z,55.54
2023-03-05T11:39:14.726Z,54.13
2023-03-05T11:41:47.519Z,54.32
2023-03-05T11:44:17.830Z,55.81
2023-03-05T11:46:50.320Z,56.43
2023-03-05T11:49:24.230Z,57.73
2023-03-05T11:52:08.222Z,57.74
2023-03-05T11:54:45.585Z,58.32
2023-03-05T11:57:17.165Z,60.42
2023-03-05T11:59:47.114Z,60.33
2023-03-05T12:02:23.257Z,61.31
2023-03-05T12:04:53.946Z,61.94
2023-03-05T12:07:33.638Z,61.56
2023-03-05T12:10:03.748Z,61.84
2023-03-05T12:12:49.655Z,62.39
2023-03-05T12:15:35.305Z,64.23
2023-03-05T12:18:20.722Z,64.70
2023-03-05T12:20:58.176Z,64.46
2023-03-05T12:23:30.635Z,63.61
2023-03-05T12:26:03.435Z,63.66
2023-03-05T12:28:59.565Z,63.41
2023-03-05T12:31:38.014Z,61.47
2023-03-05T12:34:38.035Z,59.60
2023-03-05T12:37:07.571Z,58.19
2023-03-05T12:40:01.067Z,53.74
2023-03-05T12:42:48.058Z,57.26
2023-03-05T12:45:45.521Z,59.38
2023-03-05T12:48:45.511Z,60.65
2023-03-05T12:51:36.407Z,60.83
2023-03-05T12:54:34.106Z,59.59
2023-03-05T12:57:09.280Z,57.53
2023-03-05T12:59:46.366Z,58.26
2023-03-05T13:02:29.937Z,58.29
2023-03-05T13:05:03.575Z,57.77
2023-03-05T13:07:33.098Z,56.76
2023-03-05T13:10:03.013Z,57.92
2023-03-05T13:12:35.124Z,57.59
2023-03-05T13:15:06.882Z,57.35
2023-03-05T13:17:44.427Z,57.86
2023-03-05T13:20:33.935Z,56.53
2023-03-05T13:23:07.158Z,56.62
2023-03-05T13:25:36.596Z,57.64
2023-03-05T13:28:14.393Z,55.78
2023-03-05T13:30:48.233Z,54.85
2023-03-05T13:33:21.512Z,53.71
2023-03-05T13:35:52.890Z,56.64
2023-03-05T13:38:31.610Z,57.37
2023-03-05T13:41:06.736Z,58.10
2023-03-05T13:43:45.636Z,58.20
2023-03-05T13:46:15.924Z,58.77
2023-03-05T13:48:45.462Z,58.08
2023-03-05T13:51:14.968Z,58.35
2023-03-05T13:53:44.446Z,56.93
2023-03-05T13:56:17.997Z,54.08
2023-03-05T13:58:54.097Z,53.66
2023-03-05T14:01:32.303Z,50.88
2023-03-05T14:04:06.968Z,49.22
2023-03-05T14:06:43.175Z,49.85
2023-03-05T14:09:22.682Z,53.54
2023-03-05T14:12:00.779Z,54.45
2023-03-05T14:14:39.202Z,54.01
2023-03-05T14:17:25.986Z,53.65
2023-03-05T14:19:55.590Z,52.99
2023-03-05T14:22:33.947Z,50.61
2023-03-05T14:25:03.486Z,50.06
2023-03-05T14:27:36.138Z,48.63
2023-03-05T14:30:20.168Z,48.69
2023-03-05T14:32:50.057Z,49.11
2023-03-05T14:35:21.958Z,48.60
2023-03-05T14:37:54.287Z,50.17
2023-03-05T14:40:26.016Z,49.90
2023-03-05T14:42:57.265Z,50.71
2023-03-05T14:45:31.664Z,51.22
2023-03-05T14:48:03.856Z,52.54
2023-03-05T14:50:36.470Z,52.24
2023-03-05T14:53:10.025Z,53.12
2023-03-05T14:55:39.861Z,54.37
2023-03-05T14:58:15.362Z,55.14
2023-03-05T15:00:50.077Z,54.33
2023-03-05T15:03:21.670Z,52.46
2023-03-05T15:05:53.760Z,51.93
2023-03-05T15:08:25.268Z,52.24
2023-03-05T15:10:55.355Z,53.10
2023-03-05T15:13:25.268Z,53.65
2023-03-05T15:15:57.447Z,54.57
2023-03-05T15:18:27.047Z,55.04
2023-03-05T15:20:57.094Z,54.90
2023-03-05T15:23:29.057Z,55.31
2023-03-05T15:25:58.472Z,56.08
2023-03-05T15:28:27.859Z,56.42
2023-03-05T15:31:00.548Z,56.74
2023-03-05T15:33:31.195Z,56.85
2023-03-05T15:36:00.952Z,57.09
2023-03-05T15:38:30.620Z,57.49
2023-03-05T15:41:01.785Z,57.62
2023-03-05T15:43:31.484Z,59.25
2023-03-05T15:46:03.539Z,59.72
2023-03-05T15:48:32.949Z,60.11
2023-03-05T15:51:02.368Z,59.63
2023-03-05T15:53:31.770Z,59.20
2023-03-05T15:56:01.177Z,57.96
2023-03-05T15:58:30.589Z,58.08
2023-03-05T16:00:59.999Z,58.76
2023-03-05T16:03:31.972Z,58.87
2023-03-05T16:06:01.390Z,58.83
2023-03-05T16:08:31.138Z,59.25
2023-03-05T16:11:00.855Z,59.28
2023-03-05T16:13:32.617Z,59.10
2023-03-05T16:16:03.457Z,59.72
2023-03-05T16:18:39.167Z,60.09
2023-03-05T16:21:08.770Z,60.52
2023-03-05T16:23:38.138Z,60.19
2023-03-05T16:26:08.051Z,61.07
2023-03-05T16:28:37.658Z,61.13
2023-03-05T16:31:07.752Z,61.96
2023-03-05T16:33:39.760Z,62.11
2023-03-05T16:36:26.735Z,62.68
2023-03-05T16:38:58.800Z,61.97
2023-03-05T16:41:29.316Z,63.01
2023-03-05T16:43:59.440Z,62.70
2023-03-05T16:46:32.374Z,62.77
2023-03-05T16:49:06.032Z,62.89
2023-03-05T16:51:35.550Z,63.02
2023-03-05T16:54:05.349Z,62.40
2023-03-05T16:56:35.143Z,62.76
2023-03-05T16:59:04.509Z,62.69
2023-03-05T17:01:33.908Z,62.70
2023-03-05T17:04:06.037Z,62.58
2023-03-05T17:06:35.964Z,62.89
2023-03-05T17:09:06.644Z,62.95
2023-03-05T17:11:36.140Z,63.09
2023-03-05T17:14:05.950Z,65.18
2023-03-05T17:16:35.953Z,66.65
2023-03-05T17:19:08.107Z,67.15
2023-03-05T17:21:37.643Z,67.69
2023-03-05T17:24:07.066Z,67.77
2023-03-05T17:26:36.922Z,68.42
2023-03-05T17:29:07.337Z,68.62
2023-03-05T17:31:37.194Z,68.73
2023-03-05T17:34:09.227Z,68.81
2023-03-05T17:36:39.441Z,68.84
2023-03-05T17:39:08.933Z,69.17
2023-03-05T17:41:38.411Z,68.72
2023-03-05T17:44:08.006Z,68.71
2023-03-05T17:46:37.488Z,68.73
2023-03-05T17:49:09.480Z,69.37
2023-03-05T17:51:39.085Z,69.00
2023-03-05T17:54:08.559Z,68.66
2023-03-05T17:56:37.963Z,68.53
2023-03-05T17:59:07.441Z,68.77
2023-03-05T18:01:37.131Z,68.62
2023-03-05T18:04:10.326Z,68.88
2023-03-05T18:06:39.909Z,68.26
2023-03-05T18:09:09.642Z,68.55
2023-03-05T18:11:39.527Z,68.25
2023-03-05T18:14:08.913Z,68.25
2023-03-05T18:16:38.305Z,69.31
2023-03-05T18:19:10.835Z,69.51
2023-03-05T18:21:42.129Z,69.32
2023-03-05T18:24:12.231Z,69.75
2023-03-05T18:26:41.631Z,70.42
2023-03-05T18:29:11.549Z,70.44
2023-03-05T18:31:40.894Z,70.63
2023-03-05T18:34:12.846Z,70.49
2023-03-05T18:36:42.261Z,70.31
2023-03-05T18:39:15.766Z,70.07
2023-03-05T18:41:45.310Z,70.41
2023-03-05T18:44:15.079Z,70.12
2023-03-05T18:46:44.529Z,69.87
2023-03-05T18:49:17.157Z,69.73
2023-03-05T18:51:46.713Z,69.78
2023-03-05T18:54:17.136Z,70.01
2023-03-05T18:56:47.299Z,70.53
2023-03-05T18:59:17.165Z,70.29
2023-03-05T19:01:47.237Z,70.03
2023-03-05T19:04:19.744Z,70.20
2023-03-05T19:06:49.676Z,70.08
2023-03-05T19:09:29.112Z,70.38
2023-03-05T19:11:58.959Z,69.95
2023-03-05T19:14:28.562Z,70.10
2023-03-05T19:16:57.996Z,69.88
2023-03-05T19:19:32.440Z,70.04
2023-03-05T19:22:02.076Z,70.19
2023-03-05T19:24:34.454Z,70.22
2023-03-05T19:27:10.248Z,70.26
2023-03-05T19:29:40.904Z,70.30
2023-03-05T19:32:12.908Z,70.23
2023-03-05T19:34:45.241Z,70.20
2023-03-05T19:37:15.063Z,70.37
2023-03-05T19:39:45.057Z,70.32
2023-03-05T19:42:15.153Z,70.25
2023-03-05T19:44:44.558Z,70.00
2023-03-05T19:47:14.300Z,70.11
2023-03-05T19:49:46.264Z,70.05
2023-03-05T19:52:15.816Z,69.95
2023-03-05T19:54:45.227Z,70.07
2023-03-05T19:57:15.118Z,69.87
2023-03-05T19:59:46.130Z,69.49
2023-03-05T20:02:19.378Z,69.74
2023-03-05T20:04:52.113Z,69.92
2023-03-05T20:07:21.513Z,70.21
2023-03-05T20:09:53.180Z,69.96
2023-03-05T20:12:22.613Z,70.42
2023-03-05T20:14:51.987Z,70.35
2023-03-05T20:17:21.460Z,70.19
2023-03-05T20:19:55.401Z,70.32
2023-03-05T20:22:24.808Z,70.21
2023-03-05T20:24:54.216Z,70.46
2023-03-05T20:27:23.703Z,70.15
2023-03-05T20:29:53.114Z,70.41
2023-03-05T20:32:22.576Z,70.74
2023-03-05T20:34:56.225Z,70.61
2023-03-05T20:37:31.497Z,70.46
2023-03-05T20:40:00.896Z,70.76
2023-03-05T20:42:30.291Z,71.08
2023-03-05T20:44:59.688Z,71.06
2023-03-05T20:47:37.467Z,71.32
2023-03-05T20:50:11.422Z,71.39
2023-03-05T20:52:41.640Z,71.41
2023-03-05T20:55:12.365Z,71.58
2023-03-05T20:57:42.690Z,71.43
2023-03-05T21:00:13.754Z,71.73
2023-03-05T21:02:43.211Z,71.90
2023-03-05T21:05:15.409Z,71.82
2023-03-05T21:07:44.830Z,72.11
2023-03-05T21:10:16.426Z,71.93
2023-03-05T21:12:46.158Z,71.95
2023-03-05T21:15:17.634Z,71.73
2023-03-05T21:17:47.394Z,71.91
2023-03-05T21:20:23.294Z,71.89
2023-03-05T21:22:52.736Z,71.98
2023-03-05T21:25:27.668Z,71.82
2023-03-05T21:27:59.035Z,71.68
2023-03-05T21:30:31.633Z,71.56
2023-03-05T21:33:02.318Z,71.28
2023-03-05T21:35:35.291Z,71.66
2023-03-05T21:38:06.435Z,71.78
2023-03-05T21:40:37.020Z,71.47
2023-03-05T21:43:06.655Z,71.63
2023-03-05T21:45:36.034Z,71.62
2023-03-05T21:48:05.841Z,71.50
2023-03-05T21:50:38.374Z,71.17
2023-03-05T21:53:08.005Z,71.77
2023-03-05T21:55:46.494Z,72.39
2023-03-05T21:58:16.217Z,72.87
2023-03-05T22:00:45.691Z,71.88
2023-03-05T22:03:15.188Z,71.25
2023-03-05T22:05:47.773Z,70.83
2023-03-05T22:08:17.222Z,70.81
2023-03-05T22:10:46.651Z,71.10
2023-03-05T22:13:17.902Z,70.68
2023-03-05T22:15:48.798Z,70.94
2023-03-05T22:18:20.661Z,70.78
2023-03-05T22:20:53.217Z,71.17
2023-03-05T22:23:24.815Z,70.71
2023-03-05T22:25:59.044Z,70.78
2023-03-05T22:28:28.625Z,70.93
2023-03-05T22:30:58.418Z,71.36
2023-03-05T22:33:28.321Z,71.29
2023-03-05T22:36:00.501Z,71.32
2023-03-05T22:38:29.953Z,71.33
2023-03-05T22:40:59.523Z,71.52
2023-03-05T22:43:28.942Z,71.58
2023-03-05T22:45:58.379Z,71.60
2023-03-05T22:48:27.911Z,71.48
2023-03-05T22:50:59.972Z,71.62
2023-03-05T22:53:29.615Z,72.11
2023-03-05T22:55:59.228Z,71.46
2023-03-05T22:58:28.734Z,71.43
2023-03-05T23:00:58.218Z,71.39
2023-03-05T23:03:27.863Z,71.35
2023-03-05T23:06:00.063Z,71.46
2023-03-05T23:08:30.573Z,71.39
2023-03-05T23:10:59.997Z,71.29
2023-03-05T23:13:29.433Z,71.51
2023-03-05T23:15:58.993Z,71.29
2023-03-05T23:18:28.780Z,71.35
2023-03-05T23:21:00.940Z,71.27
2023-03-05T23:23:30.405Z,71.51
2023-03-05T23:25:59.760Z,71.37
2023-03-05T23:28:29.177Z,71.11
2023-03-05T23:31:00.234Z,70.90
2023-03-05T23:33:29.840Z,71.29
2023-03-05T23:36:02.900Z,71.33
2023-03-05T23:38:33.711Z,71.48
2023-03-05T23:41:03.639Z,71.08
2023-03-05T23:43:33.350Z,71.10
2023-03-05T23:46:02.987Z,70.89
2023-03-05T23:48:32.955Z,70.73
2023-03-05T23:51:05.002Z,70.84
2023-03-05T23:53:34.416Z,70.58
2023-03-05T23:56:04.167Z,71.00
2023-03-05T23:58:33.621Z,70.80
